createdAt,value
2019-03-30T00:00:46.877Z,90036.41
2019-03-30T00:03:16.938Z,89920.97
2019-03-30T00:05:47.209Z,89891.03
2019-03-30T00:08:17.032Z,89962.63
2019-03-30T00:10:47.219Z,89913.92
2019-03-30T00:13:17.617Z,90050.08
2019-03-30T00:15:48.431Z,89982.41
2019-03-30T00:18:19.347Z,89972.94
2019-03-30T00:20:49.175Z,89890.20
2019-03-30T00:23:18.958Z,89696.56
2019-03-30T00:25:48.740Z,89974.91
2019-03-30T00:28:18.584Z,90183.23
2019-03-30T00:30:48.249Z,90370.37
2019-03-30T00:33:18.072Z,90248.42
2019-03-30T00:35:47.877Z,89975.74
2019-03-30T00:38:17.717Z,89782.56
2019-03-30T00:40:47.598Z,89808.58
2019-03-30T00:43:17.385Z,89642.69
2019-03-30T00:45:47.221Z,89613.46
2019-03-30T00:48:17.067Z,89469.80
2019-03-30T00:50:46.883Z,89444.50
2019-03-30T00:53:16.651Z,89400.78
2019-03-30T00:55:46.429Z,89379.25
2019-03-30T00:58:16.225Z,89350.96
2019-03-30T01:00:45.926Z,89293.56
2019-03-30T01:03:15.698Z,89376.89
2019-03-30T01:05:45.583Z,89361.53
2019-03-30T01:08:15.279Z,89295.17
2019-03-30T01:10:45.069Z,89237.98
2019-03-30T01:13:14.898Z,89085.58
2019-03-30T01:15:44.639Z,88897.95
2019-03-30T01:18:14.435Z,88837.61
2019-03-30T01:20:44.167Z,88761.17
2019-03-30T01:23:14.151Z,88704.59
2019-03-30T01:25:43.913Z,88735.08
2019-03-30T01:28:13.701Z,88599.20
2019-03-30T01:30:43.375Z,88474.64
2019-03-30T01:33:13.181Z,88398.61
2019-03-30T01:35:43.008Z,88224.88
2019-03-30T01:38:12.763Z,87811.27
2019-03-30T01:40:42.558Z,87826.89
2019-03-30T01:43:12.364Z,87810.77
2019-03-30T01:45:42.323Z,87898.64
2019-03-30T01:48:12.013Z,87953.78
2019-03-30T01:50:41.785Z,87937.25
2019-03-30T01:53:11.439Z,87980.20
2019-03-30T01:55:41.270Z,87954.92
2019-03-30T01:58:11.111Z,88048.92
2019-03-30T02:00:40.878Z,88000.16
2019-03-30T02:03:10.663Z,87968.38
2019-03-30T02:05:40.395Z,87899.95
2019-03-30T02:08:10.158Z,87873.26
2019-03-30T02:10:44.449Z,87827.63
2019-03-30T02:13:14.450Z,87769.74
2019-03-30T02:15:44.318Z,87691.44
2019-03-30T02:18:16.069Z,87563.47
2019-03-30T02:20:47.397Z,87525.44
2019-03-30T02:23:17.186Z,87340.87
2019-03-30T02:25:46.989Z,87170.47
2019-03-30T02:28:16.672Z,87146.50
2019-03-30T02:30:46.487Z,87130.37
2019-03-30T02:33:16.263Z,87011.13
2019-03-30T02:35:46.094Z,86594.53
2019-03-30T02:38:15.865Z,86620.41
2019-03-30T02:40:45.536Z,86697.73
2019-03-30T02:43:15.366Z,86723.39
2019-03-30T02:45:45.110Z,86807.20
2019-03-30T02:48:15.040Z,86795.17
2019-03-30T02:50:49.809Z,86615.11
2019-03-30T02:53:16.298Z,86550.98
2019-03-30T02:55:46.067Z,86496.97
2019-03-30T02:58:15.882Z,86603.83
2019-03-30T03:00:45.635Z,86726.51
2019-03-30T03:03:15.438Z,86808.13
2019-03-30T03:05:45.282Z,86715.86
2019-03-30T03:08:15.055Z,86709.94
2019-03-30T03:10:45.099Z,86711.34
2019-03-30T03:13:14.900Z,86675.14
2019-03-30T03:15:44.650Z,86619.71
2019-03-30T03:18:14.348Z,86518.05
2019-03-30T03:20:44.056Z,86390.30
2019-03-30T03:23:13.745Z,86362.95
2019-03-30T03:25:43.504Z,86349.73
2019-03-30T03:28:13.337Z,86273.41
2019-03-30T03:30:43.123Z,86305.70
2019-03-30T03:33:12.892Z,86247.05
2019-03-30T03:35:42.695Z,86091.57
2019-03-30T03:38:12.482Z,86123.77
2019-03-30T03:40:42.241Z,86009.23
2019-03-30T03:43:11.969Z,85894.82
2019-03-30T03:45:41.658Z,85690.80
2019-03-30T03:48:11.451Z,85595.45
2019-03-30T03:50:46.251Z,85588.11
2019-03-30T03:53:17.209Z,85510.30
2019-03-30T03:55:47.416Z,85561.27
2019-03-30T03:58:17.743Z,85350.53
2019-03-30T04:00:47.602Z,85169.16
2019-03-30T04:03:18.733Z,85086.45
2019-03-30T04:05:48.872Z,85210.43
2019-03-30T04:08:18.742Z,85346.36
2019-03-30T04:10:48.943Z,85356.73
2019-03-30T04:13:19.282Z,85380.95
2019-03-30T04:15:49.192Z,85092.47
2019-03-30T04:18:19.177Z,85246.75
2019-03-30T04:20:48.920Z,85195.56
2019-03-30T04:23:19.045Z,85150.30
2019-03-30T04:25:48.939Z,85216.15
2019-03-30T04:28:18.794Z,85336.31
2019-03-30T04:30:48.564Z,85174.43
2019-03-30T04:33:18.338Z,84851.14
2019-03-30T04:35:48.160Z,84611.70
2019-03-30T04:38:17.946Z,84467.97
2019-03-30T04:40:47.644Z,84438.92
2019-03-30T04:43:17.470Z,84501.86
2019-03-30T04:45:47.243Z,84911.23
2019-03-30T04:48:16.999Z,84911.23
2019-03-30T04:50:46.843Z,84875.60
2019-03-30T04:53:16.906Z,85034.30
2019-03-30T04:55:47.543Z,85310.27
2019-03-30T04:58:17.376Z,85752.41
2019-03-30T05:00:47.384Z,86190.75
2019-03-30T05:03:17.200Z,86657.14
2019-03-30T05:05:47.079Z,86930.68
2019-03-30T05:08:17.205Z,87152.47
2019-03-30T05:10:46.959Z,86742.86
2019-03-30T05:13:16.897Z,86938.70
2019-03-30T05:15:46.582Z,87113.35
2019-03-30T05:18:16.702Z,87500.14
2019-03-30T05:20:46.536Z,87763.08
2019-03-30T05:23:16.357Z,87936.98
2019-03-30T05:25:46.470Z,88348.33
2019-03-30T05:28:16.346Z,88800.33
2019-03-30T05:30:46.114Z,89027.55
2019-03-30T05:33:15.800Z,89520.63
2019-03-30T05:35:46.029Z,89806.42
2019-03-30T05:38:15.786Z,89947.32
2019-03-30T05:40:45.536Z,90089.62
2019-03-30T05:43:15.336Z,90438.77
2019-03-30T05:45:45.200Z,90569.62
2019-03-30T05:48:14.989Z,90474.20
2019-03-30T05:50:44.851Z,91102.87
2019-03-30T05:53:14.631Z,91735.06
2019-03-30T05:55:44.315Z,92114.42
2019-03-30T05:58:14.153Z,92125.41
2019-03-30T06:00:44.104Z,92228.03
2019-03-30T06:03:14.245Z,92434.44
2019-03-30T06:05:43.985Z,92782.87
2019-03-30T06:08:13.763Z,93119.52
2019-03-30T06:10:43.521Z,93403.93
2019-03-30T06:13:13.991Z,93867.47
2019-03-30T06:15:44.596Z,94154.18
2019-03-30T06:18:14.379Z,94313.09
2019-03-30T06:20:44.942Z,94474.23
2019-03-30T06:23:14.797Z,94541.08
2019-03-30T06:25:44.489Z,94623.14
2019-03-30T06:28:15.626Z,94871.02
2019-03-30T06:30:46.353Z,94986.32
2019-03-30T06:33:18.634Z,95134.80
2019-03-30T06:35:48.458Z,95218.52
2019-03-30T06:38:18.355Z,95413.21
2019-03-30T06:40:48.385Z,95412.36
2019-03-30T06:43:18.202Z,95449.56
2019-03-30T06:45:48.917Z,95438.25
2019-03-30T06:48:18.783Z,95427.75
2019-03-30T06:50:48.760Z,95443.73
2019-03-30T06:53:21.015Z,95427.70
2019-03-30T06:55:50.778Z,95461.66
2019-03-30T06:58:22.248Z,95468.14
2019-03-30T07:00:53.617Z,95437.58
2019-03-30T07:03:23.678Z,95440.52
2019-03-30T07:05:55.668Z,95456.50
2019-03-30T07:08:26.952Z,95342.80
2019-03-30T07:10:57.056Z,95435.02
2019-03-30T07:13:29.589Z,95526.37
2019-03-30T07:16:02.089Z,95555.17
2019-03-30T07:18:33.193Z,95608.69
2019-03-30T07:21:03.029Z,95714.62
2019-03-30T07:23:35.264Z,95793.03
2019-03-30T07:26:04.827Z,95848.58
2019-03-30T07:28:36.639Z,95871.72
2019-03-30T07:31:07.340Z,95873.39
2019-03-30T07:33:39.550Z,95758.52
2019-03-30T07:36:10.828Z,95662.34
2019-03-30T07:38:40.746Z,95645.61
2019-03-30T07:41:10.516Z,95729.44
2019-03-30T07:43:40.339Z,95826.76
2019-03-30T07:46:10.026Z,95855.83
2019-03-30T07:48:42.067Z,95854.59
2019-03-30T07:51:11.951Z,95784.23
2019-03-30T07:53:44.876Z,95835.73
2019-03-30T07:56:13.205Z,95872.06
2019-03-30T07:58:42.840Z,95875.25
2019-03-30T08:01:12.591Z,95852.44
2019-03-30T08:03:42.573Z,95838.87
2019-03-30T08:06:13.428Z,95740.92
2019-03-30T08:08:43.360Z,95663.75
2019-03-30T08:11:14.472Z,95683.09
2019-03-30T08:13:44.544Z,95543.78
2019-03-30T08:16:14.806Z,95489.45
2019-03-30T08:18:45.786Z,95507.94
2019-03-30T08:21:15.706Z,95562.27
2019-03-30T08:23:45.672Z,95506.27
2019-03-30T08:26:15.543Z,95353.67
2019-03-30T08:28:46.268Z,95177.44
2019-03-30T08:31:18.827Z,95227.25
2019-03-30T08:33:49.968Z,95070.84
2019-03-30T08:36:19.594Z,94937.96
2019-03-30T08:38:51.871Z,95030.84
2019-03-30T08:41:21.662Z,94859.36
2019-03-30T08:43:51.846Z,94809.63
2019-03-30T08:46:21.461Z,94623.65
2019-03-30T08:48:51.263Z,94530.70
2019-03-30T08:51:21.697Z,94371.06
2019-03-30T08:53:54.794Z,94279.25
2019-03-30T08:56:27.834Z,94212.56
2019-03-30T08:58:56.945Z,94111.67
2019-03-30T09:01:27.285Z,94063.41
2019-03-30T09:03:59.637Z,93963.27
2019-03-30T09:06:30.401Z,93894.29
2019-03-30T09:09:01.235Z,94192.58
2019-03-30T09:11:30.983Z,94185.39
2019-03-30T09:14:02.840Z,94007.41
2019-03-30T09:16:32.634Z,93867.31
2019-03-30T09:19:04.859Z,93793.89
2019-03-30T09:21:35.635Z,93788.84
2019-03-30T09:24:09.974Z,93635.98
2019-03-30T09:26:39.513Z,93914.41
2019-03-30T09:29:09.360Z,93882.00
2019-03-30T09:31:41.585Z,94154.69
2019-03-30T09:34:13.675Z,93872.78
2019-03-30T09:36:48.103Z,94009.32
2019-03-30T09:39:20.520Z,93997.19
2019-03-30T09:41:52.840Z,93966.53
2019-03-30T09:44:24.284Z,93801.06
2019-03-30T09:46:54.702Z,93743.39
2019-03-30T09:49:26.770Z,93582.03
2019-03-30T09:51:56.536Z,93531.02
2019-03-30T09:54:29.162Z,93565.64
2019-03-30T09:56:58.898Z,93577.13
2019-03-30T09:59:29.630Z,93533.28
2019-03-30T10:01:59.372Z,93529.81
2019-03-30T10:04:29.981Z,93532.73
2019-03-30T10:07:00.153Z,93561.63
2019-03-30T10:09:33.034Z,93322.20
2019-03-30T10:12:02.795Z,93122.75
2019-03-30T10:14:32.583Z,92976.44
2019-03-30T10:17:02.350Z,92922.27
2019-03-30T10:19:32.167Z,93057.10
2019-03-30T10:22:04.292Z,93164.57
2019-03-30T10:24:38.339Z,93213.03
2019-03-30T10:27:09.409Z,93367.53
2019-03-30T10:29:39.311Z,93592.97
2019-03-30T10:32:10.787Z,93694.66
2019-03-30T10:34:40.464Z,93538.61
2019-03-30T10:37:10.631Z,93375.92
2019-03-30T10:39:41.460Z,93351.91
2019-03-30T10:42:11.243Z,93236.34
2019-03-30T10:44:41.605Z,93095.66
2019-03-30T10:47:12.866Z,93242.56
2019-03-30T10:49:43.578Z,93299.58
2019-03-30T10:52:14.247Z,93406.13
2019-03-30T10:54:52.496Z,93538.55
2019-03-30T10:57:18.754Z,93503.34
2019-03-30T10:59:49.292Z,93478.88
2019-03-30T11:02:19.166Z,93493.92
2019-03-30T11:04:48.941Z,93519.39
2019-03-30T11:07:18.713Z,93553.22
2019-03-30T11:09:49.675Z,93586.14
2019-03-30T11:12:19.732Z,93672.51
2019-03-30T11:14:49.540Z,93651.42
2019-03-30T11:17:21.768Z,93776.44
2019-03-30T11:19:51.923Z,93817.34
2019-03-30T11:22:21.971Z,93804.19
2019-03-30T11:25:06.213Z,93822.20
2019-03-30T11:27:24.813Z,93807.13
2019-03-30T11:29:56.196Z,93757.53
2019-03-30T11:32:25.941Z,93756.33
2019-03-30T11:34:55.736Z,93773.17
2019-03-30T11:37:28.273Z,93632.84
2019-03-30T11:40:02.378Z,93683.11
2019-03-30T11:42:32.157Z,93698.49
2019-03-30T11:45:02.123Z,93808.80
2019-03-30T11:47:32.724Z,93813.06
2019-03-30T11:50:02.961Z,93905.88
2019-03-30T11:52:32.793Z,93869.43
2019-03-30T11:55:02.642Z,93843.97
2019-03-30T11:57:33.308Z,93858.59
2019-03-30T12:00:03.696Z,93887.13
2019-03-30T12:02:33.452Z,93921.77
2019-03-30T12:05:05.810Z,93878.04
2019-03-30T12:07:36.568Z,93874.27
2019-03-30T12:10:09.141Z,93886.51
2019-03-30T12:12:43.039Z,93703.39
2019-03-30T12:15:14.287Z,93821.92
2019-03-30T12:17:43.958Z,93977.42
2019-03-30T12:20:13.741Z,94023.56
2019-03-30T12:22:45.204Z,93997.23
2019-03-30T12:25:16.887Z,94083.75
2019-03-30T12:27:46.682Z,93944.83
2019-03-30T12:30:16.428Z,93952.96
2019-03-30T12:32:47.978Z,93964.30
2019-03-30T12:35:17.815Z,93927.68
2019-03-30T12:37:47.535Z,93967.23
2019-03-30T12:40:17.341Z,93964.60
2019-03-30T12:42:47.121Z,93946.52
2019-03-30T12:45:16.872Z,93877.81
2019-03-30T12:47:48.277Z,93748.81
2019-03-30T12:50:18.077Z,93773.56
2019-03-30T12:52:50.494Z,93786.17
2019-03-30T12:55:21.455Z,93811.25
2019-03-30T12:57:51.278Z,93593.60
2019-03-30T13:00:21.920Z,93725.12
2019-03-30T13:02:52.715Z,93833.23
2019-03-30T13:05:24.687Z,93903.91
2019-03-30T13:07:54.273Z,93910.23
2019-03-30T13:10:24.278Z,93936.88
2019-03-30T13:12:57.239Z,93887.20
2019-03-30T13:15:27.221Z,93934.32
2019-03-30T13:17:57.738Z,93915.83
2019-03-30T13:20:30.063Z,93896.83
2019-03-30T13:23:01.558Z,93962.00
2019-03-30T13:25:31.270Z,93938.22
2019-03-30T13:28:01.894Z,93872.94
2019-03-30T13:30:32.697Z,93842.05
2019-03-30T13:33:03.314Z,93823.89
2019-03-30T13:35:32.976Z,93804.48
2019-03-30T13:38:02.756Z,93861.54
2019-03-30T13:40:33.030Z,93839.78
2019-03-30T13:43:02.931Z,93863.47
2019-03-30T13:45:32.853Z,93891.33
2019-03-30T13:48:02.663Z,93835.57
2019-03-30T13:50:32.433Z,93935.59
2019-03-30T13:53:02.113Z,93964.70
2019-03-30T13:55:34.158Z,93984.07
2019-03-30T13:58:04.534Z,94006.98
2019-03-30T14:00:34.338Z,93869.07
2019-03-30T14:03:05.899Z,93927.63
2019-03-30T14:05:37.519Z,93730.72
2019-03-30T14:08:08.108Z,93841.23
2019-03-30T14:10:39.827Z,93854.75
2019-03-30T14:13:10.516Z,93905.48
2019-03-30T14:15:40.211Z,93837.82
2019-03-30T14:18:10.063Z,93876.56
2019-03-30T14:20:39.818Z,93880.08
2019-03-30T14:23:10.808Z,93895.73
2019-03-30T14:25:42.271Z,93915.64
2019-03-30T14:28:12.967Z,93931.67
2019-03-30T14:30:43.705Z,93782.64
2019-03-30T14:33:15.931Z,93631.28
2019-03-30T14:35:45.509Z,93529.08
2019-03-30T14:38:15.093Z,93584.33
2019-03-30T14:40:45.851Z,93622.06
2019-03-30T14:43:15.617Z,93712.63
2019-03-30T14:45:45.471Z,93794.57
2019-03-30T14:48:15.357Z,93823.53
2019-03-30T14:50:45.173Z,93857.37
2019-03-30T14:53:14.995Z,93878.34
2019-03-30T14:55:45.675Z,93894.27
2019-03-30T14:58:15.621Z,93906.66
2019-03-30T15:00:47.927Z,93951.19
2019-03-30T15:03:17.728Z,93990.69
2019-03-30T15:05:49.004Z,93991.60
2019-03-30T15:08:21.249Z,93992.53
2019-03-30T15:10:51.071Z,93984.38
2019-03-30T15:13:21.282Z,93846.39
2019-03-30T15:15:54.786Z,93836.00
2019-03-30T15:18:24.659Z,93951.02
2019-03-30T15:20:56.768Z,94036.28
2019-03-30T15:23:29.045Z,94086.55
2019-03-30T15:25:58.692Z,94082.00
2019-03-30T15:28:28.465Z,94063.44
2019-03-30T15:31:00.730Z,94075.51
2019-03-30T15:33:30.523Z,94091.86
2019-03-30T15:36:01.909Z,94130.12
2019-03-30T15:38:31.834Z,94134.67
2019-03-30T15:41:01.921Z,94151.42
2019-03-30T15:43:38.226Z,94178.70
2019-03-30T15:46:05.067Z,94190.81
2019-03-30T15:48:37.033Z,94192.47
2019-03-30T15:51:06.797Z,94152.47
2019-03-30T15:53:36.582Z,94140.75
2019-03-30T15:56:06.406Z,94121.11
2019-03-30T15:58:36.201Z,94155.25
2019-03-30T16:01:05.939Z,94172.67
2019-03-30T16:03:35.810Z,94179.68
2019-03-30T16:06:08.486Z,94196.27
2019-03-30T16:08:39.249Z,94216.13
2019-03-30T16:11:08.899Z,94226.72
2019-03-30T16:13:38.595Z,94220.33
2019-03-30T16:16:08.378Z,94231.47
2019-03-30T16:18:38.619Z,94261.66
2019-03-30T16:21:08.601Z,94211.98
2019-03-30T16:23:39.293Z,94247.69
2019-03-30T16:26:11.577Z,94280.70
2019-03-30T16:28:43.186Z,94258.83
2019-03-30T16:31:13.009Z,94247.73
2019-03-30T16:33:42.751Z,94276.55
2019-03-30T16:36:12.646Z,94316.91
2019-03-30T16:38:44.006Z,94339.63
2019-03-30T16:41:13.847Z,94368.70
2019-03-30T16:43:46.062Z,94374.97
2019-03-30T16:46:15.836Z,94398.31
2019-03-30T16:48:45.536Z,94407.03
2019-03-30T16:51:15.461Z,94421.61
2019-03-30T16:53:47.233Z,94420.84
2019-03-30T16:56:16.698Z,94467.02
2019-03-30T16:58:47.632Z,94488.45
2019-03-30T17:01:17.673Z,94520.35
2019-03-30T17:03:47.513Z,94548.97
2019-03-30T17:06:17.302Z,94594.95
2019-03-30T17:08:47.895Z,94625.25
2019-03-30T17:11:18.500Z,94659.25
2019-03-30T17:13:48.238Z,94684.12
2019-03-30T17:16:20.291Z,94714.22
2019-03-30T17:18:52.612Z,94736.19
2019-03-30T17:21:22.537Z,94764.08
2019-03-30T17:23:52.332Z,94796.58
2019-03-30T17:26:22.331Z,94826.89
2019-03-30T17:28:53.273Z,94857.42
2019-03-30T17:31:23.052Z,94854.55
2019-03-30T17:33:52.684Z,94874.91
2019-03-30T17:36:22.570Z,94900.63
2019-03-30T17:38:52.465Z,94918.03
2019-03-30T17:41:22.311Z,94870.30
2019-03-30T17:43:54.508Z,94838.89
2019-03-30T17:46:26.680Z,94891.14
2019-03-30T17:48:56.624Z,94931.69
2019-03-30T17:51:26.914Z,94952.53
2019-03-30T17:53:56.720Z,94965.75
2019-03-30T17:56:26.596Z,94978.49
2019-03-30T17:58:57.359Z,94982.05
2019-03-30T18:01:27.035Z,94979.02
2019-03-30T18:03:58.846Z,94976.55
2019-03-30T18:06:31.298Z,94976.33
2019-03-30T18:09:00.858Z,94974.33
2019-03-30T18:11:31.246Z,94965.48
2019-03-30T18:14:01.007Z,94970.17
2019-03-30T18:16:30.793Z,94961.64
2019-03-30T18:19:01.460Z,94964.70
2019-03-30T18:21:32.152Z,94961.56
2019-03-30T18:24:02.769Z,94945.53
2019-03-30T18:26:32.786Z,94935.31
2019-03-30T18:29:03.522Z,94921.95
2019-03-30T18:31:34.150Z,94895.20
2019-03-30T18:34:03.965Z,94878.55
2019-03-30T18:36:34.009Z,94846.70
2019-03-30T18:39:09.926Z,94829.03
2019-03-30T18:41:36.377Z,94821.33
2019-03-30T18:44:08.758Z,94823.97
2019-03-30T18:46:41.676Z,94826.61
2019-03-30T18:49:12.380Z,94857.73
2019-03-30T18:51:43.326Z,94847.97
2019-03-30T18:54:13.805Z,94833.12
2019-03-30T18:56:44.572Z,94927.11
2019-03-30T18:59:15.991Z,94990.08
2019-03-30T19:01:46.025Z,94941.36
2019-03-30T19:04:15.995Z,94899.83
2019-03-30T19:06:46.685Z,94896.44
2019-03-30T19:09:16.530Z,94884.24
2019-03-30T19:11:47.228Z,94877.26
2019-03-30T19:14:17.057Z,94842.89
2019-03-30T19:16:47.011Z,94821.64
2019-03-30T19:19:17.598Z,94780.45
2019-03-30T19:21:48.435Z,94735.30
2019-03-30T19:24:18.285Z,94741.31
2019-03-30T19:26:50.547Z,94773.31
2019-03-30T19:29:21.289Z,94752.00
2019-03-30T19:31:51.284Z,94674.88
2019-03-30T19:34:20.926Z,94603.06
2019-03-30T19:36:50.935Z,94558.78
2019-03-30T19:39:21.613Z,94640.11
2019-03-30T19:41:52.247Z,94629.34
2019-03-30T19:44:22.128Z,94540.38
2019-03-30T19:46:53.133Z,94468.25
2019-03-30T19:49:24.058Z,94424.20
2019-03-30T19:51:54.449Z,94411.53
2019-03-30T19:54:25.194Z,94455.31
2019-03-30T19:56:57.521Z,94408.05
2019-03-30T19:59:27.273Z,94371.97
2019-03-30T20:01:56.960Z,94365.62
2019-03-30T20:04:27.057Z,94328.08
2019-03-30T20:06:57.826Z,94264.95
2019-03-30T20:09:27.606Z,94316.77
2019-03-30T20:11:57.726Z,94369.97
2019-03-30T20:14:27.588Z,94478.35
2019-03-30T20:16:58.296Z,94416.05
2019-03-30T20:19:28.113Z,94345.25
2019-03-30T20:21:58.158Z,94666.80
2019-03-30T20:24:30.734Z,94873.95
2019-03-30T20:27:00.560Z,94673.23
2019-03-30T20:29:30.644Z,94476.63
2019-03-30T20:32:01.441Z,94330.41
2019-03-30T20:34:31.183Z,94144.87
2019-03-30T20:37:01.004Z,94192.31
2019-03-30T20:39:30.923Z,94067.69
2019-03-30T20:42:00.726Z,93972.56
2019-03-30T20:44:30.565Z,93919.40
2019-03-30T20:47:00.347Z,93974.91
2019-03-30T20:49:30.153Z,93855.56
2019-03-30T20:52:00.047Z,93814.12
2019-03-30T20:54:30.204Z,93682.65
2019-03-30T20:57:02.067Z,93579.25
2019-03-30T20:59:39.957Z,93557.06
2019-03-30T21:02:06.257Z,93639.66
2019-03-30T21:04:36.026Z,93651.35
2019-03-30T21:07:06.169Z,93573.33
2019-03-30T21:09:37.936Z,93487.48
2019-03-30T21:12:10.044Z,93539.56
2019-03-30T21:14:45.629Z,93569.05
2019-03-30T21:17:15.811Z,93455.59
2019-03-30T21:19:46.484Z,93360.92
2019-03-30T21:22:16.521Z,93301.27
2019-03-30T21:24:46.625Z,93235.91
2019-03-30T21:27:16.827Z,93189.35
2019-03-30T21:29:54.576Z,93235.56
2019-03-30T21:32:19.731Z,93251.08
2019-03-30T21:34:51.829Z,93131.13
2019-03-30T21:37:21.786Z,93170.05
2019-03-30T21:39:53.868Z,93132.73
2019-03-30T21:42:23.769Z,93159.25
2019-03-30T21:44:55.472Z,93141.43
2019-03-30T21:47:28.209Z,93074.55
2019-03-30T21:49:58.168Z,93067.28
2019-03-30T21:52:31.351Z,93024.47
2019-03-30T21:55:01.724Z,93009.82
2019-03-30T21:57:34.130Z,92962.48
2019-03-30T22:00:10.376Z,92880.44
2019-03-30T22:02:38.172Z,92807.80
2019-03-30T22:05:07.963Z,92808.53
2019-03-30T22:07:39.408Z,92763.53
2019-03-30T22:10:12.165Z,92712.96
2019-03-30T22:12:44.424Z,92647.83
2019-03-30T22:15:18.224Z,92603.86
2019-03-30T22:17:48.543Z,92546.91
2019-03-30T22:20:21.291Z,92554.94
2019-03-30T22:22:51.565Z,92602.36
2019-03-30T22:25:21.587Z,92767.69
2019-03-30T22:27:51.385Z,92853.01
2019-03-30T22:30:24.956Z,92860.45
2019-03-30T22:32:53.800Z,92827.69
2019-03-30T22:35:23.655Z,92796.62
2019-03-30T22:37:53.429Z,92887.30
2019-03-30T22:40:23.182Z,92954.76
2019-03-30T22:42:52.983Z,92882.63
2019-03-30T22:45:22.806Z,92805.38
2019-03-30T22:47:52.672Z,92742.70
2019-03-30T22:50:22.501Z,92715.31
2019-03-30T22:52:52.249Z,92695.92
2019-03-30T22:55:21.974Z,92645.11
2019-03-30T22:57:51.790Z,92583.66
2019-03-30T23:00:38.621Z,92478.05
2019-03-30T23:03:01.869Z,92271.01
2019-03-30T23:05:31.730Z,92193.81
2019-03-30T23:08:03.949Z,92172.51
2019-03-30T23:10:33.830Z,92064.27
2019-03-30T23:13:04.505Z,91982.20
2019-03-30T23:15:35.045Z,91863.89
2019-03-30T23:18:04.859Z,91838.05
2019-03-30T23:20:34.772Z,91887.83
2019-03-30T23:23:04.705Z,91790.23
2019-03-30T23:25:34.685Z,91764.90
2019-03-30T23:28:05.467Z,91748.52
2019-03-30T23:30:36.074Z,91662.36
2019-03-30T23:33:07.511Z,91608.78
2019-03-30T23:35:37.299Z,91449.30
2019-03-30T23:38:07.171Z,91365.69
2019-03-30T23:40:36.985Z,91266.76
2019-03-30T23:43:06.798Z,91255.79
2019-03-30T23:45:37.494Z,91201.97
2019-03-30T23:48:07.330Z,91177.58
2019-03-30T23:50:37.107Z,91165.52
2019-03-30T23:53:07.726Z,91161.69
2019-03-30T23:55:37.616Z,91010.11
2019-03-30T23:58:07.685Z,90955.22
